Time;durP1;ratioP1;P1;durP2;ratioP2;P2;SDS_P1;SDS_P2;PMS_P1;PMS_P2;Temp;Humidity;BMP_temperature;BMP_pressure;BME280_temperature;BME280_humidity;BME280_pressure;Samples;Min_cycle;Max_cycle;Signal;HPM_P1;HPM_P2
2021/01/26 00:00:18;;;;;;;6.28;3.17;;;11.60;52.00;;;;;;2097859;28;20056;-68
2021/01/26 00:01:21;;;;;;;7.55;3.50;;;11.80;51.80;;;;;;2098701;28;20040;-75
2021/01/26 00:02:22;;;;;;;8.52;3.10;;;11.90;50.30;;;;;;2098222;28;20048;-68
2021/01/26 00:03:25;;;;;;;6.65;3.72;;;12.00;50.20;;;;;;2098268;28;20048;-68
2021/01/26 00:04:27;;;;;;;;;;;11.90;49.90;;;;;;2098709;28;20048;-69
2021/01/26 00:05:28;;;;;;;7.70;3.50;;;11.90;49.50;;;;;;2098336;28;19924;-69
2021/01/26 00:06:30;;;;;;;4.35;2.60;;;11.70;50.50;;;;;;2098226;28;20075;-72
2021/01/26 00:07:32;;;;;;;;;;;12.10;50.90;;;;;;2098782;28;20094;-72
2021/01/26 00:08:34;;;;;;;8.32;3.40;;;12.10;50.30;;;;;;2098390;28;19920;-69
2021/01/26 00:09:36;;;;;;;7.60;3.97;;;12.20;50.00;;;;;;2098137;28;20048;-72
2021/01/26 00:10:38;;;;;;;8.15;3.40;;;12.10;48.90;;;;;;2098072;28;20469;-70
2021/01/26 00:11:40;;;;;;;6.65;3.40;;;12.10;49.90;;;;;;2097982;28;20055;-70
2021/01/26 00:12:41;;;;;;;5.90;3.20;;;12.00;49.70;;;;;;2097630;28;20424;-71
2021/01/26 00:13:43;;;;;;;8.38;4.13;;;12.00;49.70;;;;;;2097918;28;20059;-68
2021/01/26 00:14:45;;;;;;;6.65;3.45;;;11.80;49.60;;;;;;2097873;28;20481;-69
2021/01/26 00:15:47;;;;;;;8.05;4.03;;;11.90;50.10;;;;;;2097775;28;20044;-68
2021/01/26 00:16:50;;;;;;;9.52;4.00;;;11.60;48.70;;;;;;2097915;28;20074;-69
2021/01/26 00:17:52;;;;;;;6.85;3.28;;;11.30;49.70;;;;;;2097983;28;20053;-72
2021/01/26 00:18:53;;;;;;;7.18;3.55;;;11.40;51.80;;;;;;2098045;28;20049;-72
2021/01/26 00:19:56;;;;;;;7.85;3.28;;;11.60;50.10;;;;;;2098182;28;20059;-70
2021/01/26 00:20:58;;;;;;;4.68;3.10;;;11.40;50.20;;;;;;2097777;28;20045;-72
2021/01/26 00:22:00;;;;;;;;;;;11.30;52.00;;;;;;2098578;28;20059;-69
2021/01/26 00:23:02;;;;;;;6.22;3.38;;;11.50;52.20;;;;;;2098143;28;20281;-69
2021/01/26 00:24:04;;;;;;;7.50;3.45;;;11.90;51.60;;;;;;2097977;28;20516;-70
2021/01/26 00:25:09;;;;;;;6.80;3.22;;;12.00;50.80;;;;;;2097961;28;20041;-72
2021/01/26 00:26:11;;;;;;;7.00;3.22;;;12.10;49.90;;;;;;2097940;28;20049;-69
2021/01/26 00:27:12;;;;;;;8.32;3.55;;;12.10;49.50;;;;;;2098096;28;20485;-71
2021/01/26 00:28:16;;;;;;;8.63;3.22;;;12.10;49.40;;;;;;2098249;28;20060;-69
2021/01/26 00:29:17;;;;;;;8.38;2.97;;;12.00;49.60;;;;;;2097434;28;20045;-68
2021/01/26 00:30:21;;;;;;;6.18;3.05;;;12.00;49.90;;;;;;2098084;28;20048;-69
2021/01/26 00:31:23;;;;;;;8.38;3.95;;;11.90;50.00;;;;;;2097254;28;20355;-71
2021/01/26 00:32:25;;;;;;;6.32;3.33;;;12.10;50.00;;;;;;2097379;28;20044;-72
2021/01/26 00:33:27;;;;;;;7.35;3.65;;;12.40;50.00;;;;;;2098022;28;20049;-70
2021/01/26 00:34:28;;;;;;;8.77;3.78;;;12.40;49.40;;;;;;2097725;28;20048;-68
2021/01/26 00:35:32;;;;;;;8.00;3.55;;;12.20;49.00;;;;;;2098013;28;20078;-74
2021/01/26 00:36:33;;;;;;;9.43;3.97;;;12.00;49.20;;;;;;2097960;28;20059;-69
2021/01/26 00:37:35;;;;;;;5.03;2.58;;;11.90;48.80;;;;;;2097978;28;20055;-71
2021/01/26 00:38:37;;;;;;;7.75;3.10;;;12.10;50.30;;;;;;2097787;28;20485;-70
2021/01/26 00:39:38;;;;;;;7.53;3.75;;;12.10;50.10;;;;;;2097899;28;20425;-70
2021/01/26 00:40:40;;;;;;;6.78;3.08;;;12.10;49.40;;;;;;2097951;28;20409;-70
2021/01/26 00:41:42;;;;;;;8.23;3.67;;;12.30;49.50;;;;;;2097834;28;20045;-69
2021/01/26 00:42:44;;;;;;;10.98;3.40;;;12.10;48.70;;;;;;2098038;28;20307;-69
2021/01/26 00:43:45;;;;;;;;;;;11.90;49.00;;;;;;2098177;28;20559;-70
2021/01/26 00:44:47;;;;;;;5.75;3.30;;;12.10;50.40;;;;;;2097820;28;19928;-69
2021/01/26 00:45:48;;;;;;;6.45;3.03;;;12.10;49.30;;;;;;2098224;28;20489;-69
2021/01/26 00:46:50;;;;;;;7.78;3.45;;;11.90;49.90;;;;;;2098092;28;20049;-69
2021/01/26 00:47:52;;;;;;;6.10;3.30;;;11.90;50.00;;;;;;2097593;28;20053;-69
2021/01/26 00:48:53;;;;;;;;;;;12.20;50.30;;;;;;2098182;28;20045;-72
2021/01/26 00:49:55;;;;;;;6.32;2.92;;;12.30;49.90;;;;;;2097982;28;19920;-69
2021/01/26 00:50:58;;;;;;;7.57;3.22;;;12.30;49.50;;;;;;2097913;28;20400;-70
2021/01/26 00:51:59;;;;;;;7.15;3.40;;;12.20;49.60;;;;;;2097874;28;20052;-72
2021/01/26 00:53:01;;;;;;;5.43;3.10;;;11.90;47.80;;;;;;2097929;28;20052;-69
2021/01/26 00:54:03;;;;;;;;;;;11.90;50.40;;;;;;2098541;28;20214;-71
2021/01/26 00:55:06;;;;;;;6.65;3.25;;;12.10;50.30;;;;;;2097744;28;19921;-69
2021/01/26 00:56:08;;;;;;;6.45;3.28;;;12.10;50.10;;;;;;2097560;28;20091;-68
2021/01/26 00:57:10;;;;;;;11.57;3.72;;;12.30;49.60;;;;;;2097323;28;20485;-69
2021/01/26 00:58:13;;;;;;;7.80;3.50;;;12.30;49.20;;;;;;2097179;28;20135;-71
2021/01/26 00:59:15;;;;;;;9.15;3.53;;;12.30;49.00;;;;;;2098042;28;20194;-69
2021/01/26 01:00:19;;;;;;;8.63;3.20;;;12.10;49.60;;;;;;2097763;28;20049;-69
2021/01/26 01:01:21;;;;;;;8.63;3.10;;;12.20;49.70;;;;;;2098245;28;20048;-70
2021/01/26 01:02:23;;;;;;;7.47;3.40;;;12.20;49.10;;;;;;2097861;28;20040;-69
2021/01/26 01:03:25;;;;;;;6.53;3.90;;;12.10;48.40;;;;;;2097611;28;20550;-68
2021/01/26 01:04:26;;;;;;;7.35;3.63;;;11.80;50.30;;;;;;2097669;28;20052;-71
2021/01/26 01:05:28;;;;;;;5.63;2.75;;;11.70;48.70;;;;;;2097875;28;20493;-71
2021/01/26 01:06:31;;;;;;;4.20;2.92;;;11.90;50.90;;;;;;2097901;28;20059;-70
2021/01/26 01:07:32;;;;;;;7.65;3.53;;;12.00;50.40;;;;;;2097755;28;20063;-69
2021/01/26 01:08:34;;;;;;;7.38;3.83;;;12.00;49.80;;;;;;2097597;28;20041;-70
2021/01/26 01:09:35;;;;;;;8.65;4.50;;;11.90;49.00;;;;;;2097986;28;20045;-69
2021/01/26 01:10:38;;;;;;;6.63;3.38;;;11.70;47.80;;;;;;2097485;28;20040;-69
2021/01/26 01:11:40;;;;;;;5.22;2.83;;;11.70;51.20;;;;;;2097875;28;20040;-69
2021/01/26 01:12:41;;;;;;;7.22;4.15;;;11.80;51.10;;;;;;2098087;28;20055;-69
2021/01/26 01:13:43;;;;;;;5.47;2.70;;;11.70;50.90;;;;;;2097655;28;20060;-70
2021/01/26 01:14:45;;;;;;;5.68;3.28;;;12.10;50.70;;;;;;2098017;28;20074;-69
2021/01/26 01:15:46;;;;;;;10.00;4.13;;;11.90;49.70;;;;;;2098046;28;20055;-71
2021/01/26 01:16:48;;;;;;;9.13;4.18;;;11.30;47.20;;;;;;2096959;28;20048;-71
2021/01/26 01:17:50;;;;;;;7.07;3.25;;;10.90;49.00;;;;;;2097544;28;20132;-69
2021/01/26 01:18:52;;;;;;;;;;;10.90;51.90;;;;;;2097756;28;20103;-70
2021/01/26 01:19:54;;;;;;;7.25;3.83;;;11.10;52.80;;;;;;2097429;28;19920;-68
2021/01/26 01:20:55;;;;;;;6.22;3.03;;;11.30;51.70;;;;;;2097411;28;20040;-69
2021/01/26 01:21:58;;;;;;;5.40;3.03;;;11.70;52.20;;;;;;2097220;28;20195;-72
2021/01/26 01:23:00;;;;;;;6.65;3.20;;;11.90;51.40;;;;;;2097082;28;20044;-69
2021/01/26 01:24:01;;;;;;;7.25;2.88;;;11.70;49.50;;;;;;2096942;28;20059;-69
2021/01/26 01:25:04;;;;;;;7.18;3.92;;;11.80;49.20;;;;;;2096326;28;20044;-69
2021/01/26 01:26:06;;;;;;;9.38;3.85;;;11.30;49.50;;;;;;2096472;28;20052;-68
2021/01/26 01:27:09;;;;;;;7.38;3.35;;;11.10;49.50;;;;;;2096908;28;20572;-72
2021/01/26 01:28:10;;;;;;;6.65;3.08;;;11.00;51.50;;;;;;2097033;28;20048;-68
2021/01/26 01:29:13;;;;;;;6.43;2.90;;;11.30;52.20;;;;;;2096939;28;20052;-68
2021/01/26 01:30:18;;;;;;;10.68;3.42;;;11.70;51.60;;;;;;2096923;28;20064;-72
2021/01/26 01:31:19;;;;;;;8.98;3.85;;;11.90;50.70;;;;;;2097044;28;20056;-69
2021/01/26 01:32:21;;;;;;;5.40;2.83;;;11.70;48.90;;;;;;2096906;28;20052;-69
2021/01/26 01:33:24;;;;;;;6.05;3.30;;;11.60;51.10;;;;;;2097038;28;20056;-68
2021/01/26 01:34:26;;;;;;;5.68;3.03;;;11.50;51.20;;;;;;2096878;28;20041;-68
2021/01/26 01:35:27;;;;;;;5.13;2.85;;;11.70;51.20;;;;;;2096873;28;20040;-68
2021/01/26 01:36:29;;;;;;;7.28;3.10;;;11.90;51.20;;;;;;2096931;28;20073;-67
2021/01/26 01:37:32;;;;;;;5.22;2.65;;;12.00;50.70;;;;;;2097032;28;20045;-68
2021/01/26 01:38:33;;;;;;;6.00;2.85;;;12.20;50.40;;;;;;2096826;28;20056;-68
2021/01/26 01:39:35;;;;;;;5.80;2.92;;;12.30;50.20;;;;;;2096882;28;20437;-68
2021/01/26 01:40:37;;;;;;;7.25;3.20;;;12.20;49.20;;;;;;2097501;28;20048;-68
2021/01/26 01:41:38;;;;;;;5.28;2.63;;;12.10;49.10;;;;;;2098778;28;20044;-74
2021/01/26 01:42:40;;;;;;;5.78;2.88;;;12.20;49.80;;;;;;2098333;28;20045;-69
2021/01/26 01:43:42;;;;;;;5.13;2.90;;;12.20;48.70;;;;;;2098797;28;20049;-69
2021/01/26 01:44:43;;;;;;;5.55;3.03;;;11.90;49.20;;;;;;2098699;28;20215;-68
2021/01/26 01:45:45;;;;;;;9.18;3.25;;;12.10;49.60;;;;;;2098570;28;20405;-73
2021/01/26 01:46:53;;;;;;;5.82;3.25;;;12.20;49.70;;;;;;2098649;28;20049;-75
2021/01/26 01:48:01;;;;;;;9.30;2.83;;;12.20;49.40;;;;;;2098601;28;20087;-69
2021/01/26 01:49:06;;;;;;;5.85;3.28;;;12.20;49.00;;;;;;2098501;28;20488;-69
2021/01/26 01:50:13;;;;;;;8.07;2.90;;;11.90;48.90;;;;;;2097906;28;20478;-73
2021/01/26 01:51:17;;;;;;;8.68;3.28;;;11.90;50.20;;;;;;2098001;28;20048;-69
2021/01/26 01:52:23;;;;;;;6.25;2.80;;;11.70;49.10;;;;;;2098330;28;20051;-69
2021/01/26 01:53:31;;;;;;;8.20;3.17;;;11.80;50.30;;;;;;2098443;28;20143;-69
2021/01/26 01:54:37;;;;;;;8.52;2.80;;;12.10;50.40;;;;;;2098592;28;20044;-68
2021/01/26 01:55:47;;;;;;;5.90;3.15;;;12.10;49.90;;;;;;2098353;28;20041;-72
2021/01/26 01:56:59;;;;;;;5.75;2.67;;;12.10;48.90;;;;;;2098419;28;20051;-68
2021/01/26 01:58:06;;;;;;;6.75;2.92;;;12.10;49.30;;;;;;2098549;28;20055;-70
2021/01/26 01:59:13;;;;;;;7.35;2.92;;;12.00;49.20;;;;;;2098371;28;20044;-71
2021/01/26 02:00:16;;;;;;;7.13;2.97;;;12.10;49.40;;;;;;2098432;28;20052;-70
2021/01/26 02:01:20;;;;;;;5.72;2.78;;;12.20;49.30;;;;;;2098424;28;20076;-73
2021/01/26 02:02:23;;;;;;;4.72;2.55;;;12.20;50.30;;;;;;2098469;28;20040;-73
2021/01/26 02:03:28;;;;;;;6.53;3.03;;;12.30;49.50;;;;;;2098393;28;20461;-71
2021/01/26 02:04:32;;;;;;;6.43;2.63;;;12.70;49.30;;;;;;2098615;28;20474;-69
2021/01/26 02:05:34;;;;;;;4.95;2.40;;;12.60;48.90;;;;;;2098517;28;20075;-69
2021/01/26 02:06:38;;;;;;;7.28;2.88;;;12.50;48.80;;;;;;2098208;28;20397;-69
2021/01/26 02:07:40;;;;;;;4.55;2.75;;;12.40;48.00;;;;;;2098538;28;20497;-68
2021/01/26 02:08:47;;;;;;;;;;;12.40;49.30;;;;;;2099778;28;20071;-70
2021/01/26 02:09:49;;;;;;;4.95;2.60;;;12.40;49.20;;;;;;2099515;28;20327;-70
2021/01/26 02:10:51;;;;;;;11.23;2.85;;;12.40;49.30;;;;;;2099050;28;20076;-72
2021/01/26 02:11:52;;;;;;;4.50;2.75;;;12.60;49.20;;;;;;2098241;28;20052;-69
2021/01/26 02:12:54;;;;;;;4.75;2.72;;;12.70;48.90;;;;;;2098351;28;20059;-69
2021/01/26 02:13:56;;;;;;;5.35;2.50;;;12.70;48.80;;;;;;2098419;28;20045;-70
2021/01/26 02:14:59;;;;;;;6.93;3.38;;;12.60;48.40;;;;;;2098406;28;20052;-69
2021/01/26 02:16:03;;;;;;;5.68;2.80;;;12.60;48.40;;;;;;2098531;28;20154;-69
2021/01/26 02:17:16;;;;;;;5.22;2.53;;;12.40;48.70;;;;;;2098493;28;20045;-70
2021/01/26 02:18:40;;;;;;;8.43;2.97;;;12.50;48.30;;;;;;2098258;28;20048;-69
2021/01/26 02:20:26;;;;;;;3.78;2.30;;;12.50;49.00;;;;;;2098105;28;20052;-70
2021/01/26 02:21:55;;;;;;;6.80;2.28;;;12.80;48.90;;;;;;2087684;28;20489;-69
2021/01/26 02:23:40;;;;;;;6.97;2.85;;;12.70;47.90;;;;;;2098276;28;20045;-70
2021/01/26 02:25:13;;;;;;;5.72;2.83;;;12.70;48.60;;;;;;2098033;28;20512;-68
2021/01/26 02:26:58;;;;;;;6.47;2.70;;;12.70;48.40;;;;;;2098038;28;20041;-72
2021/01/26 02:28:39;;;;;;;6.82;3.20;;;12.80;48.70;;;;;;2097400;28;20045;-72
2021/01/26 02:30:19;;;;;;;4.38;2.58;;;12.80;48.20;;;;;;2097897;28;20051;-69
2021/01/26 02:31:50;;;;;;;5.22;2.42;;;12.70;48.20;;;;;;2098225;28;20045;-68
2021/01/26 02:33:33;;;;;;;7.80;3.40;;;12.50;48.50;;;;;;2098021;28;20056;-69
2021/01/26 02:35:08;;;;;;;4.47;2.47;;;12.50;48.20;;;;;;2098142;28;20298;-68
2021/01/26 02:36:52;;;;;;;5.10;2.50;;;12.70;48.80;;;;;;2098348;28;20413;-70
2021/01/26 02:38:39;;;;;;;7.22;2.70;;;12.80;48.40;;;;;;2070072;28;20046;-71
2021/01/26 02:39:58;;;;;;;6.57;2.75;;;12.70;48.40;;;;;;2080163;28;20057;-69
2021/01/26 02:41:05;;;;;;;5.97;2.50;;;12.70;48.50;;;;;;2097930;28;20048;-69
2021/01/26 02:42:30;;;;;;;6.50;2.70;;;12.70;48.60;;;;;;2097950;28;20442;-69
2021/01/26 02:44:03;;;;;;;6.57;3.17;;;12.50;48.20;;;;;;2095462;28;20045;-68
2021/01/26 02:45:16;;;;;;;;;;;12.80;48.60;;;;;;2093265;28;20051;-68
2021/01/26 02:46:30;;;;;;;8.27;3.22;;;12.90;48.40;;;;;;2097963;28;19920;-68
2021/01/26 02:47:39;;;;;;;;;;;12.60;47.30;;;;;;2098488;28;20068;-69
2021/01/26 02:48:58;;;;;;;5.85;2.67;;;12.70;49.10;;;;;;2097829;28;20007;-68
2021/01/26 02:50:08;;;;;;;8.07;2.80;;;12.60;48.50;;;;;;2098006;28;20412;-68
2021/01/26 02:51:16;;;;;;;7.47;2.42;;;12.40;47.30;;;;;;2098000;28;20412;-70
2021/01/26 02:52:30;;;;;;;5.68;2.38;;;12.70;48.80;;;;;;2097161;28;20048;-68
2021/01/26 02:53:38;;;;;;;4.85;2.38;;;12.70;48.60;;;;;;2098087;28;20041;-69
2021/01/26 02:54:48;;;;;;;4.60;2.80;;;12.90;48.40;;;;;;2098019;28;20057;-69
2021/01/26 02:55:57;;;;;;;5.05;2.55;;;12.70;47.70;;;;;;2098072;28;20044;-69
2021/01/26 02:57:09;;;;;;;4.65;2.33;;;12.70;48.20;;;;;;2097828;28;20053;-70
2021/01/26 02:58:17;;;;;;;5.00;2.63;;;12.70;48.50;;;;;;2097914;28;20044;-69
2021/01/26 02:59:28;;;;;;;5.82;2.83;;;12.70;47.80;;;;;;2098026;28;20480;-71
2021/01/26 03:00:32;;;;;;;6.15;3.17;;;12.60;48.70;;;;;;2097988;28;20044;-70
2021/01/26 03:01:40;;;;;;;4.45;2.30;;;12.80;48.10;;;;;;2097895;28;20049;-69
2021/01/26 03:02:48;;;;;;;7.03;2.33;;;12.90;48.40;;;;;;2097729;28;20045;-68
2021/01/26 03:03:53;;;;;;;5.22;2.78;;;12.80;47.50;;;;;;2097714;28;20442;-69
2021/01/26 03:05:01;;;;;;;4.97;2.92;;;12.50;48.30;;;;;;2097988;28;20040;-69
2021/01/26 03:06:07;;;;;;;5.05;2.60;;;12.50;48.90;;;;;;2097746;28;20485;-70
2021/01/26 03:07:12;;;;;;;6.03;2.35;;;12.40;47.70;;;;;;2097881;28;20044;-69
2021/01/26 03:08:19;;;;;;;4.30;2.40;;;12.20;49.00;;;;;;2097747;28;20397;-68
2021/01/26 03:09:26;;;;;;;4.72;2.40;;;12.50;49.20;;;;;;2097885;28;20131;-70
2021/01/26 03:10:36;;;;;;;4.15;2.30;;;12.70;48.80;;;;;;2097986;28;20049;-72
2021/01/26 03:11:46;;;;;;;5.78;2.85;;;12.70;48.20;;;;;;2097876;28;20045;-68
2021/01/26 03:12:57;;;;;;;6.20;3.00;;;12.60;48.20;;;;;;2097871;28;20416;-75
2021/01/26 03:14:03;;;;;;;5.05;2.63;;;12.40;48.30;;;;;;2097821;28;20059;-69
2021/01/26 03:15:10;;;;;;;5.57;2.40;;;12.40;48.80;;;;;;2097981;28;20052;-68
2021/01/26 03:16:16;;;;;;;4.60;2.35;;;12.40;48.30;;;;;;2097705;28;20385;-67
2021/01/26 03:17:25;;;;;;;4.95;2.50;;;12.50;49.20;;;;;;2097840;28;20052;-68
2021/01/26 03:18:36;;;;;;;6.72;2.40;;;12.70;48.50;;;;;;2097639;28;20412;-72
2021/01/26 03:19:40;;;;;;;6.50;2.83;;;12.60;48.70;;;;;;2097757;28;20057;-69
2021/01/26 03:20:45;;;;;;;4.85;2.63;;;12.50;48.40;;;;;;2097844;28;20044;-70
2021/01/26 03:21:51;;;;;;;6.35;2.45;;;12.60;48.70;;;;;;2097676;28;20055;-68
2021/01/26 03:22:55;;;;;;;5.10;2.35;;;12.70;48.60;;;;;;2097700;28;20493;-70
2021/01/26 03:24:03;;;;;;;3.72;2.10;;;12.70;48.10;;;;;;2097647;28;20386;-70
2021/01/26 03:25:07;;;;;;;6.80;2.83;;;12.70;48.30;;;;;;2098032;28;20048;-69
2021/01/26 03:26:14;;;;;;;6.53;2.72;;;12.80;48.20;;;;;;2097982;28;20040;-69
2021/01/26 03:27:19;;;;;;;4.10;2.30;;;12.90;48.20;;;;;;2097860;28;20044;-69
2021/01/26 03:28:23;;;;;;;4.70;2.20;;;13.00;47.70;;;;;;2097839;28;20055;-69
2021/01/26 03:29:30;;;;;;;8.13;2.97;;;13.00;48.00;;;;;;2097826;28;20401;-69
2021/01/26 03:30:35;;;;;;;5.35;2.50;;;12.90;47.60;;;;;;2097702;28;20398;-70
2021/01/26 03:31:42;;;;;;;5.10;2.20;;;12.90;47.00;;;;;;2097889;28;20060;-69
2021/01/26 03:32:47;;;;;;;5.20;2.22;;;12.90;47.80;;;;;;2097738;28;20049;-70
2021/01/26 03:33:52;;;;;;;4.22;2.20;;;12.80;48.10;;;;;;2097831;28;20049;-75
2021/01/26 03:34:54;;;;;;;4.55;2.30;;;12.90;48.10;;;;;;2097762;28;20056;-69
2021/01/26 03:35:56;;;;;;;5.82;2.70;;;12.80;47.10;;;;;;2097855;28;20485;-69
2021/01/26 03:36:58;;;;;;;5.32;2.17;;;12.80;46.80;;;;;;2097536;28;20045;-67
2021/01/26 03:38:11;;;;;;;6.57;2.63;;;12.80;47.90;;;;;;2097098;28;20071;-70
2021/01/26 03:39:13;;;;;;;4.65;2.42;;;12.50;48.20;;;;;;2096970;28;20441;-72
2021/01/26 03:40:14;;;;;;;3.67;2.25;;;12.50;48.50;;;;;;2097633;28;20496;-69
2021/01/26 03:41:18;;;;;;;3.70;2.25;;;12.40;49.00;;;;;;2097734;28;20044;-68
2021/01/26 03:42:23;;;;;;;4.32;2.30;;;12.50;48.50;;;;;;2097784;28;20045;-73
2021/01/26 03:43:25;;;;;;;3.15;2.13;;;12.60;48.50;;;;;;2097935;28;20052;-69
2021/01/26 03:44:27;;;;;;;5.80;3.08;;;12.70;47.80;;;;;;2097650;28;20040;-68
2021/01/26 03:45:29;;;;;;;4.35;2.45;;;12.40;48.00;;;;;;2097548;28;20052;-69
2021/01/26 03:46:45;;;;;;;8.05;2.90;;;12.60;49.00;;;;;;2097437;28;20052;-69
2021/01/26 03:48:00;;;;;;;4.22;2.38;;;12.20;48.60;;;;;;2097424;28;20102;-69
2021/01/26 03:49:16;;;;;;;3.97;2.25;;;12.50;49.20;;;;;;2097476;28;20573;-71
2021/01/26 03:50:31;;;;;;;8.60;2.40;;;12.70;48.90;;;;;;2097475;28;20509;-75
2021/01/26 03:51:46;;;;;;;4.75;2.17;;;12.70;47.70;;;;;;2097434;28;20052;-68
2021/01/26 03:53:27;;;;;;;4.75;2.00;;;12.70;48.40;;;;;;2097363;28;20048;-70
2021/01/26 03:54:32;;;;;;;3.88;2.20;;;12.70;48.00;;;;;;2097446;28;20044;-69
2021/01/26 03:55:42;;;;;;;4.03;2.20;;;12.60;48.10;;;;;;2097461;28;20430;-68
2021/01/26 03:56:59;;;;;;;3.83;2.30;;;12.80;48.20;;;;;;2096920;28;20055;-69
2021/01/26 03:58:11;;;;;;;3.53;2.00;;;12.80;48.50;;;;;;2096894;28;20052;-69
2021/01/26 03:59:20;;;;;;;5.82;2.70;;;12.90;47.60;;;;;;2097355;28;20048;-70
2021/01/26 04:00:30;;;;;;;4.53;2.28;;;12.70;48.00;;;;;;2097505;28;20045;-71
2021/01/26 04:01:38;;;;;;;6.93;2.22;;;12.80;48.20;;;;;;2097356;28;20508;-69
2021/01/26 04:02:54;;;;;;;5.60;2.78;;;12.60;47.00;;;;;;2097537;28;20044;-71
2021/01/26 04:04:02;;;;;;;4.72;2.20;;;12.50;48.10;;;;;;2097229;28;20056;-70
2021/01/26 04:05:10;;;;;;;5.13;2.20;;;12.50;47.30;;;;;;2097338;28;20468;-70
2021/01/26 04:06:20;;;;;;;5.32;2.20;;;12.60;48.70;;;;;;2097360;28;20048;-69
2021/01/26 04:07:32;;;;;;;4.30;1.90;;;12.70;47.90;;;;;;2096741;28;20048;-68
2021/01/26 04:08:38;;;;;;;5.50;2.10;;;12.80;48.10;;;;;;2096672;28;20048;-69
2021/01/26 04:09:50;;;;;;;4.93;2.30;;;12.90;48.10;;;;;;2097393;28;20044;-69
2021/01/26 04:10:59;;;;;;;4.88;2.80;;;12.90;48.00;;;;;;2097455;28;20406;-68
2021/01/26 04:12:08;;;;;;;4.05;2.42;;;12.70;45.60;;;;;;2097317;28;20059;-68
2021/01/26 04:13:14;;;;;;;4.18;2.33;;;12.40;48.50;;;;;;2097420;28;20064;-69
2021/01/26 04:14:21;;;;;;;3.83;2.08;;;12.40;48.70;;;;;;2097365;28;20051;-69
2021/01/26 04:15:29;;;;;;;5.40;2.28;;;12.60;48.30;;;;;;2097442;28;20055;-71
2021/01/26 04:16:38;;;;;;;6.10;2.50;;;12.80;48.40;;;;;;2097349;28;20257;-71
2021/01/26 04:17:44;;;;;;;4.05;2.25;;;12.70;47.00;;;;;;2097483;28;20052;-72
2021/01/26 04:18:49;;;;;;;3.35;1.98;;;12.50;47.70;;;;;;2097415;28;20492;-69
2021/01/26 04:19:57;;;;;;;4.50;2.05;;;12.80;48.50;;;;;;2097312;28;20425;-69
2021/01/26 04:21:00;;;;;;;3.13;1.90;;;12.90;48.00;;;;;;2097494;28;20049;-70
2021/01/26 04:22:03;;;;;;;3.33;1.90;;;12.90;48.10;;;;;;2097593;28;20446;-69
2021/01/26 04:23:06;;;;;;;5.80;1.98;;;12.80;48.00;;;;;;2097478;28;20083;-69
2021/01/26 04:24:08;;;;;;;4.75;2.33;;;13.00;47.90;;;;;;2097851;28;20049;-69
2021/01/26 04:25:40;;;;;;;3.35;1.95;;;13.10;47.50;;;;;;2098620;28;20044;-69
2021/01/26 04:26:44;;;;;;;3.70;2.22;;;13.00;47.10;;;;;;2071902;28;20058;-68
2021/01/26 04:27:47;;;;;;;6.00;2.58;;;13.10;47.80;;;;;;2071360;28;20049;-69
2021/01/26 04:28:49;;;;;;;4.55;2.00;;;13.00;47.30;;;;;;2074094;28;20582;-75
2021/01/26 04:29:52;;;;;;;3.47;2.05;;;13.10;47.70;;;;;;2097266;28;20049;-69
2021/01/26 04:30:54;;;;;;;3.80;2.22;;;13.00;47.20;;;;;;2097221;28;20044;-73
2021/01/26 04:31:56;;;;;;;5.68;2.13;;;12.90;47.20;;;;;;2097324;28;20057;-69
2021/01/26 04:32:58;;;;;;;;;;;13.10;47.60;;;;;;2097605;28;20182;-69
2021/01/26 04:34:00;;;;;;;3.65;1.75;;;13.10;46.90;;;;;;2097359;28;19925;-69
2021/01/26 04:35:02;;;;;;;2.55;1.60;;;13.10;47.40;;;;;;2097233;28;20052;-69
2021/01/26 04:36:06;;;;;;;2.90;1.98;;;13.10;47.30;;;;;;2097294;28;20052;-68
2021/01/26 04:37:08;;;;;;;4.25;2.25;;;13.10;47.20;;;;;;2097213;28;20052;-68
2021/01/26 04:38:10;;;;;;;4.30;1.92;;;13.10;47.50;;;;;;2097104;28;20616;-68
2021/01/26 04:39:11;;;;;;;;;;;13.10;47.40;;;;;;2097433;28;20497;-70
2021/01/26 04:40:14;;;;;;;3.72;1.90;;;13.10;47.30;;;;;;2097114;28;20498;-68
2021/01/26 04:41:28;;;;;;;7.53;2.63;;;13.00;47.60;;;;;;2097210;28;20047;-68
2021/01/26 04:42:34;;;;;;;3.88;2.28;;;12.90;46.80;;;;;;2097128;28;20057;-73
2021/01/26 04:43:45;;;;;;;4.03;2.33;;;12.70;47.60;;;;;;2097080;28;20052;-69
2021/01/26 04:45:00;;;;;;;3.05;1.92;;;12.60;46.30;;;;;;2097149;28;20064;-73
2021/01/26 04:46:09;;;;;;;3.75;2.42;;;12.50;47.50;;;;;;2097256;28;20067;-69
2021/01/26 04:47:16;;;;;;;4.47;2.53;;;12.20;47.30;;;;;;2097004;28;20485;-69
2021/01/26 04:48:26;;;;;;;3.72;1.90;;;12.30;48.30;;;;;;2097127;28;20045;-74
2021/01/26 04:49:34;;;;;;;7.30;2.72;;;12.50;49.10;;;;;;2096922;28;20444;-70
2021/01/26 04:50:49;;;;;;;4.70;2.00;;;12.40;46.40;;;;;;2096975;28;20052;-69
2021/01/26 04:52:02;;;;;;;3.30;2.17;;;11.90;48.30;;;;;;2097071;28;20055;-71
2021/01/26 04:53:29;;;;;;;5.03;2.30;;;12.10;48.60;;;;;;2097241;28;20048;-69
2021/01/26 04:54:41;;;;;;;4.45;1.90;;;12.20;49.30;;;;;;2097085;28;20485;-69
2021/01/26 04:55:51;;;;;;;3.90;1.80;;;12.00;49.50;;;;;;2097093;28;20052;-69
2021/01/26 04:57:04;;;;;;;5.05;2.10;;;12.40;49.30;;;;;;2097095;28;20401;-70
2021/01/26 04:58:23;;;;;;;3.20;2.00;;;12.60;48.80;;;;;;2096934;28;20247;-72
2021/01/26 04:59:44;;;;;;;7.25;2.80;;;12.50;48.60;;;;;;2096979;28;20045;-68
2021/01/26 05:00:56;;;;;;;3.90;1.85;;;12.10;47.20;;;;;;2097139;28;20056;-68
2021/01/26 05:02:26;;;;;;;5.68;2.08;;;12.40;49.20;;;;;;2097214;28;20195;-69
2021/01/26 05:03:54;;;;;;;5.40;2.40;;;12.40;48.80;;;;;;2097095;28;20559;-69
2021/01/26 05:05:01;;;;;;;3.63;1.90;;;12.50;48.20;;;;;;2095341;28;20044;-69
2021/01/26 05:06:06;;;;;;;3.42;1.98;;;12.50;48.30;;;;;;2097066;28;20057;-70
2021/01/26 05:07:13;;;;;;;4.25;1.80;;;12.50;48.60;;;;;;2097110;28;20115;-68
2021/01/26 05:08:20;;;;;;;4.13;1.80;;;12.50;47.90;;;;;;2096429;28;20046;-68
2021/01/26 05:09:28;;;;;;;4.07;1.90;;;12.60;47.90;;;;;;2096637;28;20048;-69
2021/01/26 05:10:36;;;;;;;6.00;2.55;;;12.40;48.30;;;;;;2097279;28;20067;-68
2021/01/26 05:11:42;;;;;;;2.88;1.75;;;12.50;46.80;;;;;;2097203;28;20056;-68
2021/01/26 05:12:47;;;;;;;3.33;1.60;;;12.30;48.80;;;;;;2097287;28;20047;-68
2021/01/26 05:13:53;;;;;;;4.07;2.08;;;12.50;48.80;;;;;;2097092;28;20485;-69
2021/01/26 05:15:02;;;;;;;3.17;1.80;;;12.50;48.40;;;;;;2097162;28;20049;-69
2021/01/26 05:16:10;;;;;;;2.95;1.92;;;12.30;48.60;;;;;;2098582;28;20044;-73
2021/01/26 05:17:18;;;;;;;4.80;1.75;;;12.40;48.10;;;;;;2098776;28;20047;-67
2021/01/26 05:18:26;;;;;;;3.55;2.00;;;12.50;48.50;;;;;;2098895;28;20123;-68
2021/01/26 05:19:35;;;;;;;5.10;2.17;;;12.50;48.10;;;;;;2098774;28;20044;-72
2021/01/26 05:20:42;;;;;;;4.00;1.98;;;12.60;48.40;;;;;;2098591;28;20428;-69
2021/01/26 05:21:47;;;;;;;2.90;1.48;;;12.70;48.40;;;;;;2098205;28;20052;-69
2021/01/26 05:22:51;;;;;;;3.83;1.98;;;12.90;47.70;;;;;;2098248;28;20048;-69
2021/01/26 05:23:58;;;;;;;3.97;1.75;;;12.70;47.10;;;;;;2098750;28;20051;-69
2021/01/26 05:25:05;;;;;;;3.90;1.85;;;12.80;47.90;;;;;;2098671;28;20393;-69
2021/01/26 05:26:12;;;;;;;3.65;1.83;;;12.70;48.00;;;;;;2098721;28;20052;-68
2021/01/26 05:27:14;;;;;;;4.20;2.10;;;12.80;48.10;;;;;;2098524;28;20117;-70
2021/01/26 05:28:17;;;;;;;3.85;1.80;;;12.40;46.90;;;;;;2098716;28;20048;-72
2021/01/26 05:29:19;;;;;;;6.68;2.38;;;12.60;48.50;;;;;;2098793;28;20125;-69
2021/01/26 05:30:33;;;;;;;4.57;1.90;;;12.60;47.50;;;;;;2098826;28;20109;-68
2021/01/26 05:31:36;;;;;;;5.10;1.90;;;12.80;48.00;;;;;;2098795;28;20055;-69
2021/01/26 05:32:43;;;;;;;3.00;1.80;;;12.70;47.50;;;;;;2098099;28;20469;-68
2021/01/26 05:33:45;;;;;;;4.05;1.80;;;12.90;48.00;;;;;;2098095;28;20109;-70
2021/01/26 05:34:50;;;;;;;5.60;1.85;;;12.90;47.60;;;;;;2098722;28;20048;-73
2021/01/26 05:35:54;;;;;;;3.97;2.08;;;12.90;47.40;;;;;;2098669;28;20044;-68
2021/01/26 05:36:56;;;;;;;3.45;1.52;;;12.80;47.10;;;;;;2098093;28;20059;-69
2021/01/26 05:37:58;;;;;;;;;;;12.80;47.60;;;;;;2098312;28;20052;-68
2021/01/26 05:38:59;;;;;;;3.25;1.77;;;13.00;47.50;;;;;;2098353;28;20389;-68
2021/01/26 05:40:07;;;;;;;4.07;1.90;;;13.00;47.40;;;;;;2098458;28;20049;-71
2021/01/26 05:41:10;;;;;;;3.03;1.95;;;13.00;47.20;;;;;;2098678;28;20072;-68
2021/01/26 05:42:14;;;;;;;2.05;1.80;;;12.90;47.00;;;;;;2098656;28;20207;-68
2021/01/26 05:43:18;;;;;;;3.20;1.90;;;12.90;46.50;;;;;;2098259;28;20409;-69
2021/01/26 05:44:21;;;;;;;2.78;1.92;;;12.70;46.80;;;;;;2098342;28;20052;-68
2021/01/26 05:45:25;;;;;;;2.88;1.85;;;12.90;47.60;;;;;;2098636;28;20045;-70
2021/01/26 05:46:41;;;;;;;5.78;1.83;;;13.00;47.20;;;;;;2098569;28;20052;-68
2021/01/26 05:48:03;;;;;;;2.88;1.65;;;13.10;46.90;;;;;;2098413;28;20079;-68
2021/01/26 05:49:06;;;;;;;3.72;2.00;;;13.00;47.20;;;;;;2098542;28;20049;-69
2021/01/26 05:50:21;;;;;;;;;;;12.80;46.10;;;;;;2098872;28;20052;-68
2021/01/26 05:51:26;;;;;;;9.25;2.80;;;12.80;46.70;;;;;;2098408;28;20377;-69